createdAt,value
2023-02-28T00:10:54.034Z,2021.99463
2023-02-28T00:25:56.398Z,1619.72827
2023-02-28T00:40:58.708Z,1131.19263
2023-02-28T00:56:00.926Z,830.70441
2023-02-28T01:11:03.156Z,303.39615
2023-02-28T01:26:05.417Z,88.20782
2023-02-28T01:41:07.679Z,13.57043
2023-02-28T01:56:09.895Z,0.96932
2023-02-28T02:11:12.184Z,0
2023-02-28T02:26:14.459Z,0
2023-02-28T02:41:16.721Z,0
2023-02-28T02:56:18.958Z,0
2023-02-28T03:11:21.317Z,0
2023-02-28T03:26:23.576Z,0
2023-02-28T03:41:25.855Z,0
2023-02-28T03:56:28.075Z,0
2023-02-28T04:11:30.724Z,0
2023-02-28T04:26:33.318Z,0
2023-02-28T04:41:36.080Z,0
2023-02-28T04:56:38.874Z,0
2023-02-28T05:11:41.245Z,0
2023-02-28T05:26:43.506Z,0
2023-02-28T05:41:45.717Z,0
2023-02-28T05:56:47.973Z,0.96932
2023-02-28T06:11:50.252Z,0.96932
2023-02-28T06:26:52.524Z,0.96932
2023-02-28T06:41:56.275Z,0.96932
2023-02-28T06:56:58.864Z,0.96932
2023-02-28T07:12:01.059Z,0.96932
2023-02-28T07:27:03.288Z,0.96932
2023-02-28T07:42:05.553Z,0.96932
2023-02-28T07:57:07.794Z,0
2023-02-28T08:12:09.999Z,0.96932
2023-02-28T08:27:12.344Z,0
2023-02-28T08:42:14.560Z,0
2023-02-28T08:57:16.771Z,0
2023-02-28T09:12:19.036Z,0
2023-02-28T09:27:21.319Z,0
2023-02-28T09:42:23.566Z,0.96932
2023-02-28T09:57:26.095Z,0
2023-02-28T10:12:28.376Z,0
2023-02-28T10:27:30.560Z,0
2023-02-28T10:42:32.792Z,0
2023-02-28T10:57:35.060Z,0
2023-02-28T11:12:43.427Z,0
2023-02-28T11:27:49.368Z,0
2023-02-28T11:42:51.630Z,0.96932
2023-02-28T11:57:53.893Z,0
2023-02-28T12:12:56.130Z,0
2023-02-28T12:27:58.404Z,0
2023-02-28T12:43:00.591Z,0
2023-02-28T12:58:02.847Z,0
2023-02-28T13:13:05.083Z,0
2023-02-28T13:28:07.336Z,0
2023-02-28T13:43:09.924Z,0
2023-02-28T13:58:12.211Z,0
2023-02-28T14:13:14.497Z,1.93863
2023-02-28T14:28:16.882Z,29.0795
2023-02-28T14:43:19.054Z,152.18272
2023-02-28T14:58:21.283Z,518.58447
2023-02-28T15:13:23.634Z,1320.20935
2023-02-28T15:28:25.890Z,2352.53174
2023-02-28T15:43:28.536Z,2804.23315
2023-02-28T15:58:30.961Z,3491.47876
2023-02-28T16:13:33.184Z,5440.7749
2023-02-28T16:28:35.426Z,6277.29492
2023-02-28T16:43:37.862Z,6592.32324
2023-02-28T16:58:40.131Z,6415.90723
2023-02-28T17:13:42.539Z,9379.1084
2023-02-28T17:28:44.810Z,10975.57324
2023-02-28T17:43:47.047Z,9708.67676
2023-02-28T17:58:49.421Z,10856.34766
2023-02-28T18:13:51.688Z,10822.4209
2023-02-28T18:28:54.156Z,11025.97754
2023-02-28T18:43:56.493Z,8044.35938
2023-02-28T18:58:58.868Z,11500.94336
2023-02-28T19:14:01.159Z,17320.7207
2023-02-28T19:29:03.523Z,10174.91797
2023-02-28T19:44:05.703Z,12622.44238
2023-02-28T19:59:16.798Z,23348.90039
2023-02-28T20:14:24.159Z,16275.79688
2023-02-28T20:29:26.378Z,12165.89453
2023-02-28T20:44:28.609Z,15448.00098
2023-02-28T20:59:30.926Z,9403.3418
2023-02-28T21:14:33.161Z,10140.02246
2023-02-28T21:29:35.503Z,14527.14941
2023-02-28T21:44:37.805Z,12424.70215
2023-02-28T21:59:40.054Z,10488.00684
2023-02-28T22:14:42.286Z,7928.0415
2023-02-28T22:29:44.536Z,6147.40674
2023-02-28T22:44:46.804Z,6244.33838
2023-02-28T22:59:49.086Z,7515.1123
2023-02-28T23:14:51.415Z,5717.02979
2023-02-28T23:29:53.645Z,3679.52637
2023-02-28T23:44:55.925Z,4242.69922
2023-02-28T23:59:58.173Z,4004.24731
